Track Трегубец Александра

Time Latitude Longitude Accuracy (66% radius in meters) Altitude (meters) Speed (km/hour) Bearing (degrees) Battery (%) GPS flag
08:34:56 60.370960 29.556291 8 74 0 278.63293457031 50 1 delete
08:34:44 60.370950 29.556285 8 76 0 255.35461425781 50 1 delete
08:34:32 60.370958 29.556295 8 80 0 356.79046630859 50 1 delete
08:34:20 60.370969 29.556306 6 67 0 66.737762451172 50 1 delete
08:34:09 60.370967 29.556299 8 75 0.27845776081085 175.7077331543 50 1 delete
08:34:01 60.370959 29.556314 6 68 0.56806653738022 42.333648681641 50 1 delete
08:33:57 60.370961 29.556276 8 72 0.45535245537758 104.57569122314 50 1 delete
08:33:43 60.370957 29.556186 8 76 0 275.23657226562 50 1 delete
08:33:39 60.370978 29.556227 6 67 0.29546195268631 250.58210754395 50 1 delete
08:33:31 60.370972 29.556294 4 66 0 146.77774047852 50 1 delete
08:33:19 60.370983 29.556324 6 70 0 357.69146728516 50 1 delete
08:33:07 60.370974 29.556328 6 83 0 15.797973632812 50 1 delete
08:32:54 60.370974 29.556277 6 76 0 16.494876861572 50 1 delete
08:32:42 60.370990 29.556276 8 63 0 32.102596282959 50 1 delete
08:32:29 60.370994 29.556319 6 72 0.40935841202736 32.102596282959 50 1 delete
08:32:27 60.370990 29.556317 12 74 0 174.31378173828 50 1 delete
08:32:16 60.370979 29.556349 6 80 0.042247571051121 111.13319396973 50 1 delete
08:32:04 60.370953 29.556317 12 69 0 308.32705688477 50 1 delete
08:31:51 60.370956 29.556295 6 75 0 307.79177856445 50 1 delete
08:31:39 60.370957 29.556340 8 72 0 141.2741394043 50 1 delete
08:31:27 60.370943 29.556333 6 72 0 141.2741394043 50 1 delete
08:31:23 60.370942 29.556325 8 70 0 246.27166748047 50 1 delete
08:31:15 60.370891 29.556265 8 62 0 28.841552734375 50 1 delete
08:31:02 60.370894 29.556247 6 67 0 214.07501220703 50 1 delete
08:30:50 60.370930 29.556275 4 64 0 204.36227416992 50 1 delete
08:30:38 60.370935 29.556218 8 86 0 200.07815551758 50 1 delete
08:30:26 60.370915 29.556224 6 88 0 200.07815551758 50 1 delete
08:30:14 60.370912 29.556211 8 86 0 200.07815551758 50 1 delete
08:30:04 60.370920 29.556229 12 86 0 200.07815551758 50 1 delete
08:30:02 60.370921 29.556234 6 84 0 200.07815551758 50 1 delete
08:29:49 60.370949 29.556234 4 78 0 133.54479980469 50 1 delete
08:29:36 60.370968 29.556233 4 82 0 133.54479980469 50 1 delete
08:29:23 60.370971 29.556269 6 95 0 133.54479980469 50 1 delete
08:29:11 60.370927 29.556246 4 83 0 48.547241210938 50 1 delete
08:28:57 60.370963 29.556256 6 71 0 48.547241210938 50 1 delete
08:28:45 60.370949 29.556277 6 101 0 48.547241210938 50 1 delete
08:28:43 60.370946 29.556304 8 114 0 48.547241210938 50 1 delete
08:28:39 60.370960 29.556392 12 113 0 48.547241210938 50 1 delete
08:28:32 60.370967 29.556433 6 122 0 48.547241210938 50 1 delete
08:28:18 60.370975 29.556472 6 97 0 48.547241210938 50 1 delete
08:28:09 60.371006 29.556433 16 91 0 3.5598158836365 50 1 delete
08:28:06 60.371012 29.556397 12 87 0 3.5598158836365 50 1 delete
08:27:54 60.370986 29.556344 8 76 0 173.931640625 54 1 delete
08:27:53 60.370985 29.556340 12 76 0 173.931640625 54 1 delete
08:27:41 60.370991 29.556293 8 81 0 214.1876373291 54 1 delete
08:27:29 60.370974 29.556279 8 82 0 179.99534606934 54 1 delete
08:27:24 60.370967 29.556261 8 87 0.27753672003746 216.27268981934 54 1 delete
08:27:16 60.370975 29.556321 8 80 0 33.205074310303 54 1 delete
08:27:03 60.370998 29.556317 6 61 0 241.69090270996 54 1 delete
08:26:51 60.371006 29.556311 6 57 0 241.69090270996 54 1 delete